PBD1506 UNNT-UNAA
Flight info
| Callsign | PBD1506 |
|---|---|
| Flight time | N/A |
| Altitude | 33000 |
| Route | K0815F330 OGATI1K OGATI A308 DOREM DOREM1E |
| Aircraft | B738/M-SDE2E3FGHIRWXY/LB1 |
Departure
| Time | 2026-04-27 12:31 |
|---|---|
| Airport | Novosibirsk Tolmachevo Airport (UNNT) |
Arrival
| Time | N/A |
|---|---|
| Airport | Abakan International Airport (UNAA) |
| Time | Latitude | Longitude | Altitude | Speed | Heading |
|---|---|---|---|---|---|
| 2026-04-27 12:07 | 55.01142 | 82.67113 | 356 ft | 0 kts | 171° |
| 2026-04-27 12:26 | 55.01129 | 82.67117 | 356 ft | 4 kts | 171° |
| 2026-04-27 12:26 | 55.01100 | 82.67166 | 356 ft | 9 kts | 89° |
| 2026-04-27 12:26 | 55.01108 | 82.67292 | 359 ft | 9 kts | 86° |
| 2026-04-27 12:26 | 55.01110 | 82.67398 | 359 ft | 8 kts | 83° |
| 2026-04-27 12:27 | 55.01157 | 82.67498 | 359 ft | 13 kts | 32° |
| 2026-04-27 12:27 | 55.01241 | 82.67584 | 357 ft | 14 kts | 30° |
| 2026-04-27 12:27 | 55.01327 | 82.67674 | 356 ft | 14 kts | 32° |
| 2026-04-27 12:27 | 55.01353 | 82.67703 | 356 ft | 0 kts | 32° |
| 2026-04-27 12:28 | 55.01364 | 82.67714 | 356 ft | 5 kts | 32° |
| 2026-04-27 12:28 | 55.01419 | 82.67770 | 356 ft | 12 kts | 23° |
| 2026-04-27 12:28 | 55.01481 | 82.67756 | 356 ft | 6 kts | 294° |
| 2026-04-27 12:29 | 55.01482 | 82.67677 | 356 ft | 6 kts | 261° |
| 2026-04-27 12:29 | 55.01481 | 82.67669 | 356 ft | 0 kts | 261° |
| 2026-04-27 12:30 | 55.01480 | 82.67659 | 356 ft | 4 kts | 261° |
| 2026-04-27 12:30 | 55.01447 | 82.67283 | 356 ft | 63 kts | 261° |
| 2026-04-27 12:30 | 55.01345 | 82.66193 | 353 ft | 117 kts | 261° |
| 2026-04-27 12:30 | 55.01191 | 82.64543 | 400 ft | 152 kts | 264° |
| 2026-04-27 12:31 | 55.01046 | 82.62749 | 782 ft | 156 kts | 264° |
| 2026-04-27 12:31 | 55.00879 | 82.60818 | 1191 ft | 159 kts | 263° |
| 2026-04-27 12:31 | 55.00714 | 82.58961 | 1713 ft | 157 kts | 264° |
| 2026-04-27 12:31 | 55.00542 | 82.57022 | 1992 ft | 169 kts | 263° |
| 2026-04-27 12:32 | 55.00358 | 82.54940 | 2281 ft | 181 kts | 264° |
| 2026-04-27 12:32 | 55.00113 | 82.52706 | 2529 ft | 196 kts | 251° |
| 2026-04-27 12:32 | 54.99161 | 82.50880 | 2715 ft | 221 kts | 210° |
| 2026-04-27 12:32 | 54.97580 | 82.50538 | 2990 ft | 244 kts | 171° |
| 2026-04-27 12:33 | 54.96078 | 82.51932 | 3020 ft | 250 kts | 137° |
| 2026-04-27 12:33 | 54.94939 | 82.54212 | 3061 ft | 252 kts | 129° |
| 2026-04-27 12:33 | 54.93825 | 82.56718 | 3541 ft | 270 kts | 129° |
| 2026-04-27 12:33 | 54.92644 | 82.59383 | 4029 ft | 289 kts | 128° |
| 2026-04-27 12:34 | 54.91390 | 82.62205 | 4523 ft | 307 kts | 128° |
| 2026-04-27 12:34 | 54.90057 | 82.65199 | 5207 ft | 317 kts | 128° |
| 2026-04-27 12:34 | 54.88800 | 82.68310 | 6082 ft | 318 kts | 116° |
| 2026-04-27 12:34 | 54.88274 | 82.71928 | 7223 ft | 308 kts | 91° |
| 2026-04-27 12:35 | 54.88255 | 82.75538 | 8281 ft | 301 kts | 89° |
| 2026-04-27 12:35 | 54.88248 | 82.79153 | 9101 ft | 302 kts | 89° |
| 2026-04-27 12:35 | 54.88226 | 82.82778 | 9793 ft | 307 kts | 89° |
| 2026-04-27 12:35 | 54.88197 | 82.86520 | 10475 ft | 313 kts | 90° |
| 2026-04-27 12:36 | 54.88168 | 82.90358 | 10919 ft | 326 kts | 90° |
| 2026-04-27 12:36 | 54.88139 | 82.94346 | 11307 ft | 341 kts | 90° |
| 2026-04-27 12:36 | 54.88110 | 82.98575 | 11648 ft | 356 kts | 90° |
| 2026-04-27 12:36 | 54.88079 | 83.02951 | 11992 ft | 371 kts | 90° |
| 2026-04-27 12:37 | 54.88046 | 83.07431 | 12482 ft | 381 kts | 90° |
| 2026-04-27 12:37 | 54.88010 | 83.12041 | 13107 ft | 387 kts | 90° |
| 2026-04-27 12:37 | 54.87970 | 83.16766 | 13770 ft | 392 kts | 90° |
| 2026-04-27 12:37 | 54.87934 | 83.20863 | 14347 ft | 396 kts | 91° |
| 2026-04-27 12:38 | 54.87890 | 83.25703 | 14954 ft | 403 kts | 91° |
| 2026-04-27 12:38 | 54.87845 | 83.30605 | 15698 ft | 406 kts | 91° |
| 2026-04-27 12:38 | 54.87798 | 83.35455 | 16300 ft | 412 kts | 92° |
| 2026-04-27 12:38 | 54.87746 | 83.40452 | 16928 ft | 418 kts | 92° |
| 2026-04-27 12:39 | 54.87692 | 83.45519 | 17595 ft | 421 kts | 92° |
| 2026-04-27 12:39 | 54.87635 | 83.50600 | 18199 ft | 426 kts | 92° |
| 2026-04-27 12:39 | 54.87574 | 83.55747 | 18803 ft | 431 kts | 93° |
| 2026-04-27 12:39 | 54.87512 | 83.60943 | 19464 ft | 434 kts | 93° |
| 2026-04-27 12:40 | 54.87446 | 83.66176 | 20041 ft | 439 kts | 94° |
| 2026-04-27 12:40 | 54.87376 | 83.71478 | 20691 ft | 441 kts | 94° |
| 2026-04-27 12:40 | 54.87306 | 83.76777 | 21275 ft | 445 kts | 95° |
| 2026-04-27 12:40 | 54.87230 | 83.82175 | 21810 ft | 450 kts | 95° |
| 2026-04-27 12:41 | 54.87153 | 83.87573 | 22379 ft | 453 kts | 95° |
| 2026-04-27 12:41 | 54.87072 | 83.93082 | 22925 ft | 457 kts | 95° |
| 2026-04-27 12:41 | 54.86990 | 83.98525 | 23429 ft | 461 kts | 95° |
| 2026-04-27 12:41 | 54.86900 | 84.04147 | 23937 ft | 465 kts | 95° |
| 2026-04-27 12:42 | 54.86810 | 84.09735 | 24433 ft | 468 kts | 95° |
| 2026-04-27 12:42 | 54.86717 | 84.15345 | 24869 ft | 473 kts | 95° |
| 2026-04-27 12:42 | 54.86619 | 84.21079 | 25349 ft | 476 kts | 96° |
| 2026-04-27 12:42 | 54.86519 | 84.26804 | 25782 ft | 480 kts | 96° |
| 2026-04-27 12:43 | 54.86415 | 84.32573 | 26246 ft | 483 kts | 96° |
| 2026-04-27 12:43 | 54.86306 | 84.38432 | 26662 ft | 487 kts | 96° |
| 2026-04-27 12:43 | 54.86194 | 84.44325 | 27033 ft | 492 kts | 96° |
| 2026-04-27 12:43 | 54.86079 | 84.50207 | 27463 ft | 494 kts | 96° |
| 2026-04-27 12:44 | 54.85960 | 84.56192 | 27854 ft | 498 kts | 96° |
| 2026-04-27 12:44 | 54.85838 | 84.62201 | 28251 ft | 502 kts | 96° |
| 2026-04-27 12:44 | 54.85708 | 84.68265 | 28647 ft | 505 kts | 98° |
| 2026-04-27 12:44 | 54.85536 | 84.73625 | 29021 ft | 505 kts | 99° |
| 2026-04-27 12:45 | 54.85370 | 84.77434 | 29296 ft | 505 kts | 101° |
| 2026-04-27 12:45 | 54.85207 | 84.80696 | 29581 ft | 505 kts | 101° |
| 2026-04-27 12:45 | 54.84911 | 84.86098 | 30096 ft | 502 kts | 102° |
| 2026-04-27 12:45 | 54.84576 | 84.91852 | 30604 ft | 500 kts | 102° |
| 2026-04-27 12:46 | 54.84227 | 84.97723 | 31034 ft | 500 kts | 102° |
| 2026-04-27 12:46 | 54.83874 | 85.03683 | 31509 ft | 498 kts | 102° |
| 2026-04-27 12:46 | 54.83528 | 85.09602 | 31945 ft | 496 kts | 102° |
| 2026-04-27 12:46 | 54.83186 | 85.15528 | 32317 ft | 496 kts | 101° |
| 2026-04-27 12:47 | 54.82847 | 85.21437 | 32613 ft | 497 kts | 101° |
| 2026-04-27 12:47 | 54.82504 | 85.27432 | 33025 ft | 494 kts | 101° |
| 2026-04-27 12:47 | 54.82163 | 85.33349 | 33171 ft | 497 kts | 101° |
| 2026-04-27 12:48 | 54.81444 | 85.45287 | 33184 ft | 506 kts | 101° |
| 2026-04-27 12:48 | 54.80679 | 85.57497 | 33178 ft | 520 kts | 101° |
| 2026-04-27 12:49 | 54.79891 | 85.70024 | 33173 ft | 521 kts | 102° |
| 2026-04-27 12:49 | 54.79108 | 85.82404 | 33180 ft | 519 kts | 102° |
| 2026-04-27 12:50 | 54.78310 | 85.94863 | 33181 ft | 519 kts | 102° |
| 2026-04-27 12:50 | 54.77512 | 86.07181 | 33182 ft | 520 kts | 102° |
| 2026-04-27 12:51 | 54.76697 | 86.19604 | 33183 ft | 517 kts | 102° |
| 2026-04-27 12:51 | 54.75876 | 86.31917 | 33180 ft | 519 kts | 102° |
| 2026-04-27 12:52 | 54.75044 | 86.44234 | 33189 ft | 517 kts | 102° |
| 2026-04-27 12:52 | 54.74197 | 86.56530 | 33184 ft | 517 kts | 102° |
| 2026-04-27 12:53 | 54.72904 | 86.74966 | 33186 ft | 514 kts | 102° |
| 2026-04-27 12:53 | 54.72025 | 86.87243 | 33186 ft | 514 kts | 102° |
| 2026-04-27 12:54 | 54.71140 | 86.99435 | 33190 ft | 514 kts | 102° |
| 2026-04-27 12:54 | 54.70243 | 87.11619 | 33191 ft | 512 kts | 102° |
| 2026-04-27 12:55 | 54.69335 | 87.23767 | 33189 ft | 513 kts | 102° |
| 2026-04-27 12:55 | 54.68417 | 87.35899 | 33192 ft | 514 kts | 102° |
| 2026-04-27 12:56 | 54.67488 | 87.48032 | 33190 ft | 512 kts | 102° |
| 2026-04-27 12:56 | 54.66542 | 87.60223 | 33200 ft | 511 kts | 102° |
| 2026-04-27 12:57 | 54.65590 | 87.72324 | 33212 ft | 512 kts | 103° |
| 2026-04-27 12:57 | 54.64628 | 87.84378 | 33210 ft | 510 kts | 103° |
| 2026-04-27 12:58 | 54.63653 | 87.96442 | 33203 ft | 509 kts | 103° |
| 2026-04-27 12:58 | 54.62666 | 88.08515 | 33192 ft | 509 kts | 103° |
| 2026-04-27 12:59 | 54.61665 | 88.20563 | 33181 ft | 510 kts | 103° |
| 2026-04-27 12:59 | 54.60654 | 88.32603 | 33181 ft | 509 kts | 103° |
| 2026-04-27 13:00 | 54.59634 | 88.44624 | 33177 ft | 509 kts | 103° |
| 2026-04-27 13:00 | 54.58598 | 88.56599 | 33174 ft | 508 kts | 104° |
| 2026-04-27 13:01 | 54.56989 | 88.68359 | 33176 ft | 499 kts | 116° |
| 2026-04-27 13:01 | 54.54227 | 88.79102 | 33175 ft | 492 kts | 123° |
| 2026-04-27 13:02 | 54.51016 | 88.89406 | 33175 ft | 490 kts | 125° |
| 2026-04-27 13:02 | 54.47707 | 88.99683 | 33182 ft | 489 kts | 125° |
| 2026-04-27 13:03 | 54.44452 | 89.09853 | 33135 ft | 491 kts | 125° |
| 2026-04-27 13:03 | 54.42816 | 89.14995 | 32736 ft | 493 kts | 124° |
| 2026-04-27 13:03 | 54.41182 | 89.20158 | 32175 ft | 492 kts | 124° |
| 2026-04-27 13:04 | 54.39579 | 89.25236 | 31612 ft | 487 kts | 124° |
| 2026-04-27 13:04 | 54.37987 | 89.30296 | 31062 ft | 483 kts | 124° |
| 2026-04-27 13:04 | 54.36397 | 89.35342 | 30435 ft | 480 kts | 124° |
| 2026-04-27 13:04 | 54.34820 | 89.40346 | 29783 ft | 477 kts | 125° |
| 2026-04-27 13:05 | 54.33254 | 89.45293 | 29145 ft | 474 kts | 124° |
| 2026-04-27 13:05 | 54.31702 | 89.50182 | 28509 ft | 470 kts | 124° |
| 2026-04-27 13:05 | 54.30141 | 89.55102 | 27863 ft | 478 kts | 124° |
| 2026-04-27 13:05 | 54.28514 | 89.60181 | 27211 ft | 500 kts | 124° |
| 2026-04-27 13:06 | 54.26797 | 89.65514 | 26501 ft | 521 kts | 125° |
| 2026-04-27 13:06 | 54.25042 | 89.70972 | 25768 ft | 519 kts | 124° |
| 2026-04-27 13:06 | 54.23320 | 89.76347 | 25078 ft | 519 kts | 124° |
| 2026-04-27 13:06 | 54.21594 | 89.81738 | 24362 ft | 519 kts | 124° |
| 2026-04-27 13:07 | 54.19878 | 89.87085 | 23702 ft | 528 kts | 124° |
| 2026-04-27 13:07 | 54.18091 | 89.92690 | 22912 ft | 545 kts | 123° |
| 2026-04-27 13:07 | 54.16312 | 89.98366 | 22145 ft | 554 kts | 123° |
| 2026-04-27 13:07 | 54.14530 | 90.04135 | 21330 ft | 541 kts | 122° |
| 2026-04-27 13:08 | 54.12822 | 90.09724 | 20620 ft | 534 kts | 122° |
| 2026-04-27 13:08 | 54.11120 | 90.15283 | 19888 ft | 531 kts | 122° |
| 2026-04-27 13:08 | 54.09400 | 90.20873 | 19139 ft | 530 kts | 122° |
| 2026-04-27 13:08 | 54.07688 | 90.26403 | 18395 ft | 529 kts | 122° |
| 2026-04-27 13:09 | 54.05988 | 90.31869 | 17663 ft | 528 kts | 122° |
| 2026-04-27 13:09 | 54.04277 | 90.37344 | 16907 ft | 528 kts | 122° |
| 2026-04-27 13:09 | 54.02550 | 90.42843 | 16156 ft | 528 kts | 122° |
| 2026-04-27 13:09 | 54.00829 | 90.48305 | 15387 ft | 528 kts | 122° |
| 2026-04-27 13:10 | 53.99079 | 90.53839 | 14597 ft | 521 kts | 122° |
| 2026-04-27 13:10 | 53.97438 | 90.59050 | 13857 ft | 486 kts | 122° |
| 2026-04-27 13:10 | 53.95905 | 90.63931 | 13175 ft | 456 kts | 122° |
| 2026-04-27 13:10 | 53.94461 | 90.68507 | 12557 ft | 430 kts | 124° |
| 2026-04-27 13:11 | 53.92780 | 90.72490 | 11889 ft | 404 kts | 141° |
| 2026-04-27 13:11 | 53.90632 | 90.75223 | 11288 ft | 373 kts | 155° |
| 2026-04-27 13:11 | 53.88367 | 90.77115 | 10715 ft | 349 kts | 161° |
| 2026-04-27 13:11 | 53.86218 | 90.78666 | 10422 ft | 324 kts | 162° |
| 2026-04-27 13:12 | 53.84241 | 90.80166 | 10310 ft | 299 kts | 160° |
| 2026-04-27 13:12 | 53.82455 | 90.81656 | 10160 ft | 279 kts | 158° |
| 2026-04-27 13:12 | 53.80767 | 90.83179 | 9816 ft | 276 kts | 156° |
| 2026-04-27 13:12 | 53.79102 | 90.84760 | 9468 ft | 273 kts | 155° |
| 2026-04-27 13:13 | 53.77462 | 90.86368 | 9128 ft | 271 kts | 155° |
| 2026-04-27 13:13 | 53.75846 | 90.87966 | 8786 ft | 269 kts | 154° |
| 2026-04-27 13:13 | 53.74256 | 90.89538 | 8472 ft | 266 kts | 154° |
| 2026-04-27 13:13 | 53.72665 | 90.91105 | 8134 ft | 265 kts | 154° |
| 2026-04-27 13:14 | 53.71075 | 90.92666 | 7803 ft | 263 kts | 154° |
| 2026-04-27 13:14 | 53.69502 | 90.94215 | 7467 ft | 262 kts | 152° |
| 2026-04-27 13:14 | 53.68057 | 90.96043 | 7141 ft | 263 kts | 137° |
| 2026-04-27 13:14 | 53.66871 | 90.98425 | 6824 ft | 264 kts | 129° |
| 2026-04-27 13:15 | 53.65810 | 91.00933 | 6489 ft | 263 kts | 127° |
| 2026-04-27 13:15 | 53.64739 | 91.03446 | 6060 ft | 267 kts | 127° |
| 2026-04-27 13:15 | 53.63628 | 91.05950 | 5690 ft | 268 kts | 127° |
| 2026-04-27 13:15 | 53.62509 | 91.08408 | 5361 ft | 267 kts | 128° |
| 2026-04-27 13:16 | 53.61449 | 91.10984 | 5068 ft | 265 kts | 119° |
| 2026-04-27 13:16 | 53.60634 | 91.13692 | 4858 ft | 259 kts | 113° |
| 2026-04-27 13:16 | 53.59914 | 91.16451 | 4634 ft | 254 kts | 111° |
| 2026-04-27 13:16 | 53.59217 | 91.19162 | 4363 ft | 253 kts | 110° |
| 2026-04-27 13:17 | 53.58662 | 91.21938 | 4091 ft | 248 kts | 97° |
| 2026-04-27 13:17 | 53.58706 | 91.24728 | 3863 ft | 231 kts | 66° |
| 2026-04-27 13:17 | 53.59526 | 91.26865 | 3550 ft | 218 kts | 39° |
| 2026-04-27 13:17 | 53.60772 | 91.28169 | 3296 ft | 203 kts | 19° |
| 2026-04-27 13:18 | 53.62040 | 91.29159 | 3014 ft | 197 kts | 25° |
| 2026-04-27 13:18 | 53.63196 | 91.30193 | 2745 ft | 179 kts | 23° |
| 2026-04-27 13:18 | 53.64249 | 91.31011 | 2586 ft | 157 kts | 20° |
| 2026-04-27 13:18 | 53.64984 | 91.31556 | 2418 ft | 150 kts | 20° |